createdAt,value
2018-09-15T00:02:40.108Z,3.63
2018-09-15T00:07:50.439Z,2.73
2018-09-15T00:13:00.371Z,2.20
2018-09-15T00:18:12.160Z,3.93
2018-09-15T00:23:22.038Z,3.80
2018-09-15T00:28:32.005Z,4.13
2018-09-15T00:33:42.129Z,3.40
2018-09-15T00:38:52.176Z,4.60
2018-09-15T00:44:02.072Z,3.30
2018-09-15T00:49:12.083Z,3.17
2018-09-15T00:54:22.176Z,3.80
2018-09-15T00:59:32.232Z,4.13
2018-09-15T01:04:42.231Z,2.97
2018-09-15T01:09:52.203Z,3.30
2018-09-15T01:15:02.147Z,3.53
2018-09-15T01:20:12.123Z,3.30
2018-09-15T01:25:21.930Z,3.13
2018-09-15T01:30:32.007Z,3.17
2018-09-15T01:35:42.044Z,2.43
2018-09-15T01:40:52.114Z,2.37
2018-09-15T01:46:02.204Z,2.47
2018-09-15T01:51:12.189Z,2.60
2018-09-15T01:56:22.215Z,3.00
2018-09-15T02:01:32.384Z,2.50
2018-09-15T02:06:42.450Z,2.10
2018-09-15T02:11:52.455Z,2.10
2018-09-15T02:17:02.356Z,2.80
2018-09-15T02:22:12.452Z,2.10
2018-09-15T02:27:22.454Z,2.77
2018-09-15T02:32:32.644Z,3.13
2018-09-15T02:37:42.608Z,1.97
2018-09-15T02:42:52.700Z,3.90
2018-09-15T02:48:02.672Z,3.47
2018-09-15T02:53:12.756Z,3.73
2018-09-15T02:58:22.824Z,3.27
2018-09-15T03:03:33.040Z,3.57
2018-09-15T03:08:42.992Z,3.20
2018-09-15T03:13:53.032Z,2.77
2018-09-15T03:19:03.054Z,2.47
2018-09-15T03:24:12.920Z,2.67
2018-09-15T03:29:24.943Z,2.80
2018-09-15T03:34:34.895Z,2.30
2018-09-15T03:39:44.973Z,2.60
2018-09-15T03:44:55.008Z,2.93
2018-09-15T03:50:05.190Z,2.40
2018-09-15T03:55:15.157Z,2.60
2018-09-15T04:00:25.044Z,2.83
2018-09-15T04:05:35.097Z,2.47
2018-09-15T04:10:45.152Z,2.50
2018-09-15T04:15:55.178Z,2.10
2018-09-15T04:21:05.200Z,2.67
2018-09-15T04:26:15.129Z,2.03
2018-09-15T04:31:25.172Z,1.63
2018-09-15T04:36:35.271Z,2.30
2018-09-15T04:41:45.421Z,3.73
2018-09-15T04:46:55.307Z,2.70
2018-09-15T04:52:05.396Z,2.60
2018-09-15T04:57:15.402Z,2.60
2018-09-15T05:02:25.473Z,2.60
2018-09-15T05:07:35.480Z,2.13
2018-09-15T05:12:45.645Z,2.40
2018-09-15T05:17:55.561Z,2.87
2018-09-15T05:23:05.708Z,2.30
2018-09-15T05:28:15.809Z,2.60
2018-09-15T05:33:25.832Z,2.77
2018-09-15T05:38:35.841Z,2.70
2018-09-15T05:43:45.895Z,2.10
2018-09-15T05:48:55.947Z,2.73
2018-09-15T05:54:06.027Z,1.97
2018-09-15T05:59:16.079Z,2.73
2018-09-15T06:04:26.138Z,2.27
2018-09-15T06:09:36.159Z,2.83
2018-09-15T06:14:46.182Z,2.90
2018-09-15T06:19:56.270Z,2.93
2018-09-15T06:25:07.031Z,3.57
2018-09-15T06:30:17.143Z,3.23
2018-09-15T06:35:27.156Z,2.83
2018-09-15T06:40:37.248Z,2.93
2018-09-15T06:45:47.393Z,3.93
2018-09-15T06:50:57.948Z,4.60
2018-09-15T06:56:08.013Z,4.73
2018-09-15T07:01:18.169Z,5.43
2018-09-15T07:06:28.157Z,4.50
2018-09-15T07:11:38.187Z,4.50
2018-09-15T07:16:48.436Z,3.10
2018-09-15T07:21:58.514Z,4.40
2018-09-15T07:27:08.479Z,3.40
2018-09-15T07:32:19.125Z,4.13
2018-09-15T07:37:29.068Z,3.13
2018-09-15T07:42:39.153Z,3.93
2018-09-15T07:47:49.226Z,2.87
2018-09-15T07:52:59.326Z,3.50
2018-09-15T07:58:09.236Z,3.53
2018-09-15T08:03:19.172Z,3.10
2018-09-15T08:08:29.140Z,3.50
2018-09-15T08:13:39.036Z,4.60
2018-09-15T08:18:49.059Z,3.73
2018-09-15T08:23:59.404Z,3.30
2018-09-15T08:29:09.612Z,3.97
2018-09-15T08:34:19.704Z,3.33
2018-09-15T08:39:29.738Z,4.17
2018-09-15T08:44:39.848Z,3.77
2018-09-15T08:49:50.060Z,4.77
2018-09-15T08:54:59.969Z,4.77
2018-09-15T09:00:10.350Z,4.40
2018-09-15T09:05:20.446Z,4.50
2018-09-15T09:10:30.336Z,4.77
2018-09-15T09:15:40.384Z,3.40
2018-09-15T09:20:50.580Z,3.10
2018-09-15T09:26:00.824Z,4.73
2018-09-15T09:31:11.068Z,2.43
2018-09-15T09:36:21.439Z,2.10
2018-09-15T09:41:31.478Z,2.00
2018-09-15T09:46:41.500Z,3.63
2018-09-15T09:51:51.416Z,2.20
2018-09-15T09:57:01.591Z,2.53
2018-09-15T10:02:18.748Z,2.70
2018-09-15T10:07:28.752Z,2.17
2018-09-15T10:12:39.045Z,2.20
2018-09-15T10:17:49.232Z,2.17
2018-09-15T10:22:59.412Z,2.00
2018-09-15T10:28:09.263Z,2.37
2018-09-15T10:33:19.369Z,2.20
2018-09-15T10:38:29.583Z,2.30
2018-09-15T10:43:39.509Z,2.00
2018-09-15T10:48:49.664Z,1.93
2018-09-15T10:53:59.778Z,1.40
2018-09-15T10:59:09.856Z,1.90
2018-09-15T11:04:19.952Z,1.60
2018-09-15T11:09:29.812Z,2.00
2018-09-15T11:14:39.879Z,1.60
2018-09-15T11:19:49.898Z,1.40
2018-09-15T11:24:59.904Z,1.63
2018-09-15T11:30:09.976Z,2.00
2018-09-15T11:35:19.937Z,1.53
2018-09-15T11:40:29.932Z,1.57
2018-09-15T11:45:39.940Z,1.77
2018-09-15T11:50:50.020Z,1.80
2018-09-15T11:55:59.963Z,1.30
2018-09-15T12:01:09.981Z,2.27
2018-09-15T12:06:19.916Z,1.37
2018-09-15T12:11:29.896Z,1.27
2018-09-15T12:16:39.970Z,1.67
2018-09-15T12:21:49.956Z,1.47
2018-09-15T12:26:59.889Z,2.27
2018-09-15T12:32:10.016Z,2.10
2018-09-15T12:37:20.031Z,1.97
2018-09-15T12:42:29.912Z,1.83
2018-09-15T12:47:39.876Z,2.20
2018-09-15T12:52:49.829Z,2.50
2018-09-15T12:57:59.904Z,2.80
2018-09-15T13:03:09.820Z,2.80
2018-09-15T13:08:19.771Z,2.73
2018-09-15T13:13:29.736Z,2.83
2018-09-15T13:18:39.655Z,2.23
2018-09-15T13:23:49.692Z,2.23
2018-09-15T13:28:59.517Z,3.00
2018-09-15T13:34:09.583Z,2.33
2018-09-15T13:39:19.651Z,2.47
2018-09-15T13:44:29.688Z,2.40
2018-09-15T13:49:39.744Z,2.17
2018-09-15T13:54:49.820Z,2.20
2018-09-15T13:59:59.808Z,2.27
2018-09-15T14:05:10.920Z,2.00
2018-09-15T14:10:20.843Z,1.90
2018-09-15T14:15:30.899Z,1.97
2018-09-15T14:20:41.099Z,1.70
2018-09-15T14:25:51.115Z,2.00
2018-09-15T14:31:01.054Z,3.13
2018-09-15T14:36:11.172Z,1.63
2018-09-15T14:41:21.151Z,1.57
2018-09-15T14:46:31.068Z,1.60
2018-09-15T14:51:40.908Z,2.23
2018-09-15T14:56:50.919Z,2.20
2018-09-15T15:02:00.960Z,1.90
2018-09-15T15:07:11.208Z,1.60
2018-09-15T15:12:21.148Z,1.80
2018-09-15T15:17:31.212Z,2.00
2018-09-15T15:22:41.240Z,2.50
2018-09-15T15:27:51.273Z,1.53
2018-09-15T15:33:01.346Z,2.00
2018-09-15T15:38:11.383Z,2.10
2018-09-15T15:43:21.469Z,1.47
2018-09-15T15:48:31.498Z,1.83
2018-09-15T15:53:41.428Z,1.70
2018-09-15T15:58:51.728Z,1.60
2018-09-15T16:04:01.448Z,1.70
2018-09-15T16:09:11.472Z,1.87
2018-09-15T16:14:21.409Z,1.77
2018-09-15T16:19:31.460Z,1.87
2018-09-15T16:24:41.536Z,1.77
2018-09-15T16:29:51.429Z,2.10
2018-09-15T16:35:01.458Z,2.07
2018-09-15T16:40:11.416Z,2.53
2018-09-15T16:45:21.422Z,2.53
2018-09-15T16:50:31.472Z,2.67
2018-09-15T16:55:41.491Z,2.17
2018-09-15T17:00:51.480Z,2.27
2018-09-15T17:06:01.425Z,2.47
2018-09-15T17:11:11.479Z,2.17
2018-09-15T17:16:21.565Z,2.30
2018-09-15T17:21:31.430Z,2.03
2018-09-15T17:26:41.284Z,2.23
2018-09-15T17:31:51.424Z,2.17
2018-09-15T17:37:01.471Z,1.80
2018-09-15T17:42:11.391Z,2.73
2018-09-15T17:47:21.425Z,2.10
2018-09-15T17:52:31.374Z,2.30
2018-09-15T17:57:41.235Z,2.63
2018-09-15T18:02:51.124Z,2.10
2018-09-15T18:08:01.110Z,2.57
2018-09-15T18:13:11.185Z,2.07
2018-09-15T18:18:21.094Z,2.17
2018-09-15T18:23:31.881Z,2.03
2018-09-15T18:28:42.017Z,2.17
2018-09-15T18:33:52.046Z,2.30
2018-09-15T18:39:01.981Z,2.20
2018-09-15T18:44:12.005Z,2.37
2018-09-15T18:49:22.082Z,2.67
2018-09-15T18:54:32.100Z,2.77
2018-09-15T18:59:42.041Z,2.80
2018-09-15T19:04:52.033Z,4.47
2018-09-15T19:10:01.923Z,3.03
2018-09-15T19:15:12.009Z,3.27
2018-09-15T19:20:21.887Z,2.87
2018-09-15T19:25:31.894Z,3.00
2018-09-15T19:30:41.876Z,3.97
2018-09-15T19:35:51.849Z,2.77
2018-09-15T19:41:01.907Z,2.90
2018-09-15T19:46:11.942Z,2.60
2018-09-15T19:51:21.910Z,2.90
2018-09-15T19:56:31.852Z,3.20
2018-09-15T20:01:41.973Z,3.30
2018-09-15T20:06:52.332Z,3.70
2018-09-15T20:12:02.428Z,4.57
2018-09-15T20:17:11.445Z,3.47
2018-09-15T20:22:21.356Z,6.57
2018-09-15T20:27:31.456Z,7.00
2018-09-15T20:32:41.489Z,6.37
2018-09-15T20:37:51.465Z,6.50
2018-09-15T20:43:01.700Z,4.27
2018-09-15T20:48:11.781Z,6.07
2018-09-15T20:53:21.692Z,4.10
2018-09-15T20:58:31.659Z,7.00
2018-09-15T21:03:41.601Z,4.50
2018-09-15T21:08:51.730Z,4.27
2018-09-15T21:14:01.836Z,5.37
2018-09-15T21:19:11.808Z,3.97
2018-09-15T21:24:21.857Z,5.20
2018-09-15T21:29:31.775Z,4.10
2018-09-15T21:34:41.680Z,6.43
2018-09-15T21:39:51.688Z,3.83
2018-09-15T21:45:01.722Z,3.97
2018-09-15T21:50:11.716Z,4.00
2018-09-15T21:55:21.639Z,3.57
2018-09-15T22:00:31.652Z,4.13
2018-09-15T22:05:41.680Z,5.93
2018-09-15T22:10:51.532Z,4.40
2018-09-15T22:16:01.473Z,3.93
2018-09-15T22:21:11.523Z,3.73
2018-09-15T22:26:21.377Z,4.03
2018-09-15T22:31:31.448Z,3.83
2018-09-15T22:36:41.337Z,5.60
2018-09-15T22:41:51.324Z,4.10
2018-09-15T22:47:01.224Z,7.00
2018-09-15T22:52:11.275Z,3.83
2018-09-15T22:57:21.340Z,6.33
2018-09-15T23:02:31.399Z,4.00
2018-09-15T23:07:41.303Z,4.37
2018-09-15T23:12:51.352Z,4.03
2018-09-15T23:18:01.380Z,3.80
2018-09-15T23:23:11.428Z,3.53
2018-09-15T23:28:21.402Z,3.40
2018-09-15T23:33:31.492Z,3.63
2018-09-15T23:38:41.399Z,4.27
2018-09-15T23:43:51.370Z,3.83
2018-09-15T23:49:01.362Z,6.37
2018-09-15T23:54:11.276Z,5.37
2018-09-15T23:59:21.324Z,5.73
